Hlavní strana
METAR-TAF:

METAR-TAF

Letiště :

Frontone, Itálie

zeměpisná šířka: 43-31N, zeměpisná délka: 012-44E, výška: 570 m

Aktuální stav počasí

Zpráva byla vytvořena před 41 minutami, v 13:55 UTC
Jižní vítr 5 kt
Teplota 28°C
Vlhkost vzduchu 22%
Tlak 1022 hPa
Viditelnost 10 km a více
Žádná oblačnost pod 1500 m, nevyskytují se cumulonimby.

METAR: LIVF 141355Z 19005KT CAVOK 28/04 Q1022

Čas: 16:36 (14:36 UTC)


TAF: chybějící

Stav a předpovědi počasí z více než 4 000 letišť (zprávy METAR a TAF).

Červené a žluté tečky na mapě představují dostupné meteorologické stanice.

Když kurzor umístíte na tečku, zobrazí se název stanice.

Pak kliknutím zobrazíte stav a předpověď počasí.

Chcete-li změnit mapu, kliknutím na zelené tlačítko se znaménkem +mapu přiblížíte, kliknutím na zelené tlačítko se znaménkem – mapu oddálíte a kliknutím na zelené šipky přejdete na sousední mapy.


METAR-TAF: